sensor_id;sensor_type;location;lat;lon;timestamp;temperature;humidity
39925;DHT22;25592;49.986;11.618;2023-06-22T00:01:33;23.80;90.40
39925;DHT22;25592;49.986;11.618;2023-06-22T00:04:20;23.80;90.80
39925;DHT22;25592;49.986;11.618;2023-06-22T00:07:05;23.80;90.80
39925;DHT22;25592;49.986;11.618;2023-06-22T00:09:51;23.70;91.00
39925;DHT22;25592;49.986;11.618;2023-06-22T00:12:36;23.70;91.00
39925;DHT22;25592;49.986;11.618;2023-06-22T00:15:21;23.60;91.20
39925;DHT22;25592;49.986;11.618;2023-06-22T00:18:08;23.60;91.30
39925;DHT22;25592;49.986;11.618;2023-06-22T00:20:55;23.60;90.80
39925;DHT22;25592;49.986;11.618;2023-06-22T00:23:42;23.60;90.90
39925;DHT22;25592;49.986;11.618;2023-06-22T00:26:29;23.50;90.90
39925;DHT22;25592;49.986;11.618;2023-06-22T00:29:14;23.50;91.00
39925;DHT22;25592;49.986;11.618;2023-06-22T00:32:00;23.60;90.60
39925;DHT22;25592;49.986;11.618;2023-06-22T00:34:45;23.60;90.70
39925;DHT22;25592;49.986;11.618;2023-06-22T00:37:31;23.50;90.50
39925;DHT22;25592;49.986;11.618;2023-06-22T00:40:16;23.40;90.60
39925;DHT22;25592;49.986;11.618;2023-06-22T00:43:03;23.30;90.80
39925;DHT22;25592;49.986;11.618;2023-06-22T00:45:48;23.40;90.50
39925;DHT22;25592;49.986;11.618;2023-06-22T00:48:33;23.40;90.70
39925;DHT22;25592;49.986;11.618;2023-06-22T00:51:21;23.40;90.60
39925;DHT22;25592;49.986;11.618;2023-06-22T00:54:09;23.30;90.60
39925;DHT22;25592;49.986;11.618;2023-06-22T00:56:57;23.40;90.50
39925;DHT22;25592;49.986;11.618;2023-06-22T00:59:47;23.30;90.90
39925;DHT22;25592;49.986;11.618;2023-06-22T01:02:33;23.30;91.00
39925;DHT22;25592;49.986;11.618;2023-06-22T01:05:22;23.30;90.80
39925;DHT22;25592;49.986;11.618;2023-06-22T01:11:18;23.10;91.10
39925;DHT22;25592;49.986;11.618;2023-06-22T01:14:19;23.00;91.00
39925;DHT22;25592;49.986;11.618;2023-06-22T01:17:08;23.00;91.00
39925;DHT22;25592;49.986;11.618;2023-06-22T01:19:55;23.00;91.30
39925;DHT22;25592;49.986;11.618;2023-06-22T01:29:13;23.10;91.00
39925;DHT22;25592;49.986;11.618;2023-06-22T01:32:00;23.00;91.20
39925;DHT22;25592;49.986;11.618;2023-06-22T01:34:47;23.00;91.20
39925;DHT22;25592;49.986;11.618;2023-06-22T01:37:34;22.90;91.60
39925;DHT22;25592;49.986;11.618;2023-06-22T01:40:21;22.90;91.80
39925;DHT22;25592;49.986;11.618;2023-06-22T01:43:06;22.90;91.70
39925;DHT22;25592;49.986;11.618;2023-06-22T01:45:54;22.90;91.60
39925;DHT22;25592;49.986;11.618;2023-06-22T01:48:40;22.80;91.60
39925;DHT22;25592;49.986;11.618;2023-06-22T01:51:25;22.80;92.20
39925;DHT22;25592;49.986;11.618;2023-06-22T01:54:10;22.70;92.40
39925;DHT22;25592;49.986;11.618;2023-06-22T01:56:56;22.50;92.30
39925;DHT22;25592;49.986;11.618;2023-06-22T02:00:05;22.60;92.30
39925;DHT22;25592;49.986;11.618;2023-06-22T02:02:59;22.70;92.20
39925;DHT22;25592;49.986;11.618;2023-06-22T02:06:16;22.60;92.20
39925;DHT22;25592;49.986;11.618;2023-06-22T02:09:07;22.70;92.40
39925;DHT22;25592;49.986;11.618;2023-06-22T02:11:54;22.70;92.40
39925;DHT22;25592;49.986;11.618;2023-06-22T02:14:41;22.70;92.60
39925;DHT22;25592;49.986;11.618;2023-06-22T02:17:27;22.60;92.80
39925;DHT22;25592;49.986;11.618;2023-06-22T02:20:13;22.50;92.70
39925;DHT22;25592;49.986;11.618;2023-06-22T02:22:59;22.50;92.70
39925;DHT22;25592;49.986;11.618;2023-06-22T02:25:44;22.50;92.60
39925;DHT22;25592;49.986;11.618;2023-06-22T02:28:30;22.50;92.60
39925;DHT22;25592;49.986;11.618;2023-06-22T02:31:15;22.60;92.30
39925;DHT22;25592;49.986;11.618;2023-06-22T02:34:01;22.60;92.30
39925;DHT22;25592;49.986;11.618;2023-06-22T02:36:48;22.50;92.60
39925;DHT22;25592;49.986;11.618;2023-06-22T02:39:36;22.50;92.50
39925;DHT22;25592;49.986;11.618;2023-06-22T02:42:22;22.60;92.30
39925;DHT22;25592;49.986;11.618;2023-06-22T02:45:07;22.60;91.90
39925;DHT22;25592;49.986;11.618;2023-06-22T02:47:53;22.60;92.00
39925;DHT22;25592;49.986;11.618;2023-06-22T02:50:38;22.50;92.00
39925;DHT22;25592;49.986;11.618;2023-06-22T02:53:24;22.50;91.80
39925;DHT22;25592;49.986;11.618;2023-06-22T02:56:09;22.50;91.90
39925;DHT22;25592;49.986;11.618;2023-06-22T02:58:54;22.40;91.90
39925;DHT22;25592;49.986;11.618;2023-06-22T03:01:45;22.40;92.30
39925;DHT22;25592;49.986;11.618;2023-06-22T03:04:31;22.40;92.10
39925;DHT22;25592;49.986;11.618;2023-06-22T03:07:16;22.40;91.90
39925;DHT22;25592;49.986;11.618;2023-06-22T03:10:03;22.40;91.90
39925;DHT22;25592;49.986;11.618;2023-06-22T03:12:48;22.30;91.70
39925;DHT22;25592;49.986;11.618;2023-06-22T03:15:33;22.30;92.00
39925;DHT22;25592;49.986;11.618;2023-06-22T03:18:19;22.30;91.60
39925;DHT22;25592;49.986;11.618;2023-06-22T03:21:04;22.40;91.90
39925;DHT22;25592;49.986;11.618;2023-06-22T03:23:50;22.30;92.30
39925;DHT22;25592;49.986;11.618;2023-06-22T03:26:35;22.20;92.40
39925;DHT22;25592;49.986;11.618;2023-06-22T03:29:21;22.20;92.10
39925;DHT22;25592;49.986;11.618;2023-06-22T03:32:06;22.20;92.80
39925;DHT22;25592;49.986;11.618;2023-06-22T03:34:52;22.10;93.00
39925;DHT22;25592;49.986;11.618;2023-06-22T03:37:37;22.10;93.30
39925;DHT22;25592;49.986;11.618;2023-06-22T03:40:23;22.10;93.30
39925;DHT22;25592;49.986;11.618;2023-06-22T03:43:08;22.20;93.20
39925;DHT22;25592;49.986;11.618;2023-06-22T03:45:54;22.30;94.20
39925;DHT22;25592;49.986;11.618;2023-06-22T03:48:39;22.30;93.90
39925;DHT22;25592;49.986;11.618;2023-06-22T03:51:24;22.20;94.70
39925;DHT22;25592;49.986;11.618;2023-06-22T03:54:10;22.20;95.10
39925;DHT22;25592;49.986;11.618;2023-06-22T03:56:57;22.10;95.30
39925;DHT22;25592;49.986;11.618;2023-06-22T03:59:42;22.00;95.30
39925;DHT22;25592;49.986;11.618;2023-06-22T04:02:28;21.80;95.40
39925;DHT22;25592;49.986;11.618;2023-06-22T04:05:13;21.80;95.70
39925;DHT22;25592;49.986;11.618;2023-06-22T04:07:58;21.60;95.90
39925;DHT22;25592;49.986;11.618;2023-06-22T04:10:44;21.40;96.40
39925;DHT22;25592;49.986;11.618;2023-06-22T04:13:29;21.60;95.00
39925;DHT22;25592;49.986;11.618;2023-06-22T04:16:15;21.80;95.60
39925;DHT22;25592;49.986;11.618;2023-06-22T04:19:00;21.90;95.50
39925;DHT22;25592;49.986;11.618;2023-06-22T04:21:46;21.90;95.20
39925;DHT22;25592;49.986;11.618;2023-06-22T04:24:33;21.90;96.00
39925;DHT22;25592;49.986;11.618;2023-06-22T04:27:19;21.60;96.40
39925;DHT22;25592;49.986;11.618;2023-06-22T04:30:07;21.30;97.00
39925;DHT22;25592;49.986;11.618;2023-06-22T04:32:53;21.10;97.20
39925;DHT22;25592;49.986;11.618;2023-06-22T04:35:46;21.00;97.60
39925;DHT22;25592;49.986;11.618;2023-06-22T04:38:31;21.00;97.90
39925;DHT22;25592;49.986;11.618;2023-06-22T04:41:19;20.90;98.30
39925;DHT22;25592;49.986;11.618;2023-06-22T04:46:59;21.10;98.00
39925;DHT22;25592;49.986;11.618;2023-06-22T04:49:53;21.10;98.10
39925;DHT22;25592;49.986;11.618;2023-06-22T04:52:38;21.20;98.10
39925;DHT22;25592;49.986;11.618;2023-06-22T04:55:23;21.60;97.40
39925;DHT22;25592;49.986;11.618;2023-06-22T04:58:10;21.70;96.90
39925;DHT22;25592;49.986;11.618;2023-06-22T05:00:58;22.00;96.30
39925;DHT22;25592;49.986;11.618;2023-06-22T05:03:43;22.20;96.20
39925;DHT22;25592;49.986;11.618;2023-06-22T05:06:29;22.30;95.70
39925;DHT22;25592;49.986;11.618;2023-06-22T05:09:15;22.50;95.60
39925;DHT22;25592;49.986;11.618;2023-06-22T05:12:01;22.60;95.60
39925;DHT22;25592;49.986;11.618;2023-06-22T05:14:47;22.70;95.20
39925;DHT22;25592;49.986;11.618;2023-06-22T05:17:32;22.80;94.70
39925;DHT22;25592;49.986;11.618;2023-06-22T05:20:18;22.80;94.40
39925;DHT22;25592;49.986;11.618;2023-06-22T05:23:04;22.90;94.20
39925;DHT22;25592;49.986;11.618;2023-06-22T05:25:49;23.00;94.00
39925;DHT22;25592;49.986;11.618;2023-06-22T05:28:34;23.10;93.80
39925;DHT22;25592;49.986;11.618;2023-06-22T05:31:20;23.20;93.70
39925;DHT22;25592;49.986;11.618;2023-06-22T05:34:05;23.30;93.50
39925;DHT22;25592;49.986;11.618;2023-06-22T05:36:51;23.30;93.30
39925;DHT22;25592;49.986;11.618;2023-06-22T05:39:36;23.40;93.00
39925;DHT22;25592;49.986;11.618;2023-06-22T05:42:24;23.40;93.00
39925;DHT22;25592;49.986;11.618;2023-06-22T05:45:11;23.30;93.00
39925;DHT22;25592;49.986;11.618;2023-06-22T05:47:56;23.40;93.30
39925;DHT22;25592;49.986;11.618;2023-06-22T05:50:42;23.50;93.30
39925;DHT22;25592;49.986;11.618;2023-06-22T05:53:27;23.50;93.20
39925;DHT22;25592;49.986;11.618;2023-06-22T05:56:12;23.50;93.60
39925;DHT22;25592;49.986;11.618;2023-06-22T05:58:58;23.60;93.30
39925;DHT22;25592;49.986;11.618;2023-06-22T06:01:43;23.70;93.00
39925;DHT22;25592;49.986;11.618;2023-06-22T06:04:29;23.80;93.10
39925;DHT22;25592;49.986;11.618;2023-06-22T06:07:15;23.90;92.60
39925;DHT22;25592;49.986;11.618;2023-06-22T06:10:01;23.90;92.50
39925;DHT22;25592;49.986;11.618;2023-06-22T06:12:46;24.00;92.00
39925;DHT22;25592;49.986;11.618;2023-06-22T06:15:32;24.10;92.00
39925;DHT22;25592;49.986;11.618;2023-06-22T06:18:17;24.10;91.90
39925;DHT22;25592;49.986;11.618;2023-06-22T06:21:03;24.10;91.90
39925;DHT22;25592;49.986;11.618;2023-06-22T06:23:48;24.20;91.50
39925;DHT22;25592;49.986;11.618;2023-06-22T06:26:33;24.20;91.10
39925;DHT22;25592;49.986;11.618;2023-06-22T06:29:19;24.30;91.10
39925;DHT22;25592;49.986;11.618;2023-06-22T06:32:05;24.40;90.70
39925;DHT22;25592;49.986;11.618;2023-06-22T06:34:50;24.30;91.10
39925;DHT22;25592;49.986;11.618;2023-06-22T06:37:37;24.50;91.00
39925;DHT22;25592;49.986;11.618;2023-06-22T06:40:23;24.50;90.70
39925;DHT22;25592;49.986;11.618;2023-06-22T06:43:08;24.60;90.90
39925;DHT22;25592;49.986;11.618;2023-06-22T06:45:54;24.60;90.80
39925;DHT22;25592;49.986;11.618;2023-06-22T06:48:39;24.70;90.70
39925;DHT22;25592;49.986;11.618;2023-06-22T06:51:25;24.80;90.30
39925;DHT22;25592;49.986;11.618;2023-06-22T06:54:10;24.80;90.30
39925;DHT22;25592;49.986;11.618;2023-06-22T06:56:56;24.90;90.20
39925;DHT22;25592;49.986;11.618;2023-06-22T06:59:41;24.90;90.20
39925;DHT22;25592;49.986;11.618;2023-06-22T07:02:26;24.90;90.30
39925;DHT22;25592;49.986;11.618;2023-06-22T07:05:14;25.00;90.00
39925;DHT22;25592;49.986;11.618;2023-06-22T07:08:00;25.10;90.20
39925;DHT22;25592;49.986;11.618;2023-06-22T07:10:45;25.20;90.10
39925;DHT22;25592;49.986;11.618;2023-06-22T07:13:31;25.20;89.20
39925;DHT22;25592;49.986;11.618;2023-06-22T07:16:16;25.20;89.70
39925;DHT22;25592;49.986;11.618;2023-06-22T07:19:02;25.40;89.50
39925;DHT22;25592;49.986;11.618;2023-06-22T07:21:47;25.40;89.50
39925;DHT22;25592;49.986;11.618;2023-06-22T07:24:32;25.50;89.30
39925;DHT22;25592;49.986;11.618;2023-06-22T07:27:18;25.80;89.80
39925;DHT22;25592;49.986;11.618;2023-06-22T07:30:06;25.90;88.50
39925;DHT22;25592;49.986;11.618;2023-06-22T07:32:52;26.00;89.00
39925;DHT22;25592;49.986;11.618;2023-06-22T07:35:37;26.10;88.10
39925;DHT22;25592;49.986;11.618;2023-06-22T07:38:23;26.20;88.10
39925;DHT22;25592;49.986;11.618;2023-06-22T07:41:09;26.20;87.70
39925;DHT22;25592;49.986;11.618;2023-06-22T07:43:54;26.20;87.30
39925;DHT22;25592;49.986;11.618;2023-06-22T07:46:40;26.30;86.90
39925;DHT22;25592;49.986;11.618;2023-06-22T07:49:25;26.30;86.20
39925;DHT22;25592;49.986;11.618;2023-06-22T07:52:11;26.40;86.10
39925;DHT22;25592;49.986;11.618;2023-06-22T07:54:56;26.50;85.70
39925;DHT22;25592;49.986;11.618;2023-06-22T07:57:41;26.50;85.30
39925;DHT22;25592;49.986;11.618;2023-06-22T08:00:27;26.60;85.20
39925;DHT22;25592;49.986;11.618;2023-06-22T08:03:13;26.70;85.00
39925;DHT22;25592;49.986;11.618;2023-06-22T08:05:59;26.80;84.20
39925;DHT22;25592;49.986;11.618;2023-06-22T08:08:44;26.90;84.60
39925;DHT22;25592;49.986;11.618;2023-06-22T08:11:33;27.00;84.10
39925;DHT22;25592;49.986;11.618;2023-06-22T08:14:19;27.00;84.20
39925;DHT22;25592;49.986;11.618;2023-06-22T08:17:04;27.20;84.30
39925;DHT22;25592;49.986;11.618;2023-06-22T08:19:50;27.40;83.60
39925;DHT22;25592;49.986;11.618;2023-06-22T08:22:36;27.50;83.50
39925;DHT22;25592;49.986;11.618;2023-06-22T08:25:23;27.60;83.40
39925;DHT22;25592;49.986;11.618;2023-06-22T08:28:09;27.80;83.40
39925;DHT22;25592;49.986;11.618;2023-06-22T08:30:54;28.00;83.10
39925;DHT22;25592;49.986;11.618;2023-06-22T08:33:40;28.10;82.50
39925;DHT22;25592;49.986;11.618;2023-06-22T08:36:34;28.20;82.00
39925;DHT22;25592;49.986;11.618;2023-06-22T08:39:22;28.20;82.00
39925;DHT22;25592;49.986;11.618;2023-06-22T08:42:08;28.20;81.80
39925;DHT22;25592;49.986;11.618;2023-06-22T08:44:53;28.30;81.50
39925;DHT22;25592;49.986;11.618;2023-06-22T08:47:40;28.40;81.20
39925;DHT22;25592;49.986;11.618;2023-06-22T08:50:26;28.60;80.80
39925;DHT22;25592;49.986;11.618;2023-06-22T08:53:12;28.70;80.40
39925;DHT22;25592;49.986;11.618;2023-06-22T08:55:58;28.70;80.50
39925;DHT22;25592;49.986;11.618;2023-06-22T08:58:43;28.80;79.70
39925;DHT22;25592;49.986;11.618;2023-06-22T09:01:28;28.80;80.00
39925;DHT22;25592;49.986;11.618;2023-06-22T09:04:14;28.70;79.70
39925;DHT22;25592;49.986;11.618;2023-06-22T09:07:01;28.80;80.40
39925;DHT22;25592;49.986;11.618;2023-06-22T09:09:46;28.90;79.60
39925;DHT22;25592;49.986;11.618;2023-06-22T09:12:32;28.90;79.60
39925;DHT22;25592;49.986;11.618;2023-06-22T09:15:18;29.00;79.90
39925;DHT22;25592;49.986;11.618;2023-06-22T09:18:03;29.10;79.00
39925;DHT22;25592;49.986;11.618;2023-06-22T09:20:48;29.20;79.20
39925;DHT22;25592;49.986;11.618;2023-06-22T09:23:34;29.40;77.70
39925;DHT22;25592;49.986;11.618;2023-06-22T09:26:20;29.60;78.10
39925;DHT22;25592;49.986;11.618;2023-06-22T09:29:05;29.70;78.00
39925;DHT22;25592;49.986;11.618;2023-06-22T09:31:51;29.80;77.30
39925;DHT22;25592;49.986;11.618;2023-06-22T09:34:38;30.00;77.80
39925;DHT22;25592;49.986;11.618;2023-06-22T09:37:24;30.10;76.70
39925;DHT22;25592;49.986;11.618;2023-06-22T09:40:09;30.10;77.30
39925;DHT22;25592;49.986;11.618;2023-06-22T09:42:56;30.20;76.70
39925;DHT22;25592;49.986;11.618;2023-06-22T09:45:42;30.40;76.70
39925;DHT22;25592;49.986;11.618;2023-06-22T09:48:27;30.50;76.00
39925;DHT22;25592;49.986;11.618;2023-06-22T09:51:13;30.30;75.30
39925;DHT22;25592;49.986;11.618;2023-06-22T09:54:02;30.60;76.10
39925;DHT22;25592;49.986;11.618;2023-06-22T09:56:47;30.90;75.40
39925;DHT22;25592;49.986;11.618;2023-06-22T09:59:32;30.90;74.50
39925;DHT22;25592;49.986;11.618;2023-06-22T10:02:17;30.80;74.30
39925;DHT22;25592;49.986;11.618;2023-06-22T10:05:04;31.00;74.60
39925;DHT22;25592;49.986;11.618;2023-06-22T10:07:50;30.90;74.30
39925;DHT22;25592;49.986;11.618;2023-06-22T10:10:35;31.20;73.90
39925;DHT22;25592;49.986;11.618;2023-06-22T10:13:20;31.30;73.40
39925;DHT22;25592;49.986;11.618;2023-06-22T10:16:06;31.30;74.10
39925;DHT22;25592;49.986;11.618;2023-06-22T10:18:52;31.70;72.30
39925;DHT22;25592;49.986;11.618;2023-06-22T10:21:37;31.60;70.90
39925;DHT22;25592;49.986;11.618;2023-06-22T10:24:22;31.80;72.00
39925;DHT22;25592;49.986;11.618;2023-06-22T10:27:08;31.90;70.40
39925;DHT22;25592;49.986;11.618;2023-06-22T10:29:53;31.90;71.30
39925;DHT22;25592;49.986;11.618;2023-06-22T10:32:39;32.00;69.70
39925;DHT22;25592;49.986;11.618;2023-06-22T10:35:25;32.10;69.40
39925;DHT22;25592;49.986;11.618;2023-06-22T10:38:10;32.20;69.40
39925;DHT22;25592;49.986;11.618;2023-06-22T10:40:56;32.40;70.80
39925;DHT22;25592;49.986;11.618;2023-06-22T10:43:43;32.60;68.50
39925;DHT22;25592;49.986;11.618;2023-06-22T10:46:28;32.80;68.90
39925;DHT22;25592;49.986;11.618;2023-06-22T10:49:14;33.10;67.30
39925;DHT22;25592;49.986;11.618;2023-06-22T10:51:59;33.10;67.30
39925;DHT22;25592;49.986;11.618;2023-06-22T10:54:44;33.00;67.20
39925;DHT22;25592;49.986;11.618;2023-06-22T10:57:30;32.90;67.20
39925;DHT22;25592;49.986;11.618;2023-06-22T11:00:15;33.10;67.80
39925;DHT22;25592;49.986;11.618;2023-06-22T11:03:02;33.40;67.90
39925;DHT22;25592;49.986;11.618;2023-06-22T11:05:47;33.50;66.00
39925;DHT22;25592;49.986;11.618;2023-06-22T11:08:33;33.60;64.20
39925;DHT22;25592;49.986;11.618;2023-06-22T11:11:18;33.60;65.10
39925;DHT22;25592;49.986;11.618;2023-06-22T11:14:03;33.60;65.40
39925;DHT22;25592;49.986;11.618;2023-06-22T11:16:49;33.60;64.80
39925;DHT22;25592;49.986;11.618;2023-06-22T11:19:34;33.60;64.50
39925;DHT22;25592;49.986;11.618;2023-06-22T11:22:20;33.40;64.70
39925;DHT22;25592;49.986;11.618;2023-06-22T11:25:06;33.60;64.90
39925;DHT22;25592;49.986;11.618;2023-06-22T11:27:52;33.60;63.90
39925;DHT22;25592;49.986;11.618;2023-06-22T11:30:40;33.50;63.80
39925;DHT22;25592;49.986;11.618;2023-06-22T11:33:25;33.60;64.50
39925;DHT22;25592;49.986;11.618;2023-06-22T11:36:11;33.70;63.20
39925;DHT22;25592;49.986;11.618;2023-06-22T11:38:56;33.70;62.30
39925;DHT22;25592;49.986;11.618;2023-06-22T11:41:42;33.70;60.80
39925;DHT22;25592;49.986;11.618;2023-06-22T11:44:27;33.80;60.10
39925;DHT22;25592;49.986;11.618;2023-06-22T11:47:13;33.70;60.00
39925;DHT22;25592;49.986;11.618;2023-06-22T11:49:58;33.70;59.40
39925;DHT22;25592;49.986;11.618;2023-06-22T11:52:43;33.60;60.00
39925;DHT22;25592;49.986;11.618;2023-06-22T11:55:29;33.70;60.70
39925;DHT22;25592;49.986;11.618;2023-06-22T11:58:14;33.70;60.70
39925;DHT22;25592;49.986;11.618;2023-06-22T12:01:00;34.10;60.30
39925;DHT22;25592;49.986;11.618;2023-06-22T12:03:45;34.20;59.40
39925;DHT22;25592;49.986;11.618;2023-06-22T12:06:32;34.30;61.00
39925;DHT22;25592;49.986;11.618;2023-06-22T12:09:18;34.50;61.10
39925;DHT22;25592;49.986;11.618;2023-06-22T12:12:04;34.50;60.40
39925;DHT22;25592;49.986;11.618;2023-06-22T12:14:52;34.80;61.00
39925;DHT22;25592;49.986;11.618;2023-06-22T12:17:38;34.80;60.70
39925;DHT22;25592;49.986;11.618;2023-06-22T12:20:23;34.80;60.70
39925;DHT22;25592;49.986;11.618;2023-06-22T12:23:10;34.60;60.90
39925;DHT22;25592;49.986;11.618;2023-06-22T12:25:56;34.80;61.40
39925;DHT22;25592;49.986;11.618;2023-06-22T12:28:42;34.80;61.00
39925;DHT22;25592;49.986;11.618;2023-06-22T12:31:27;35.00;60.20
39925;DHT22;25592;49.986;11.618;2023-06-22T12:34:13;35.00;60.00
39925;DHT22;25592;49.986;11.618;2023-06-22T12:36:58;35.00;59.50
39925;DHT22;25592;49.986;11.618;2023-06-22T12:39:44;35.00;59.50
39925;DHT22;25592;49.986;11.618;2023-06-22T12:42:29;34.80;60.00
39925;DHT22;25592;49.986;11.618;2023-06-22T12:45:15;34.90;59.70
39925;DHT22;25592;49.986;11.618;2023-06-22T12:48:00;35.00;59.60
39925;DHT22;25592;49.986;11.618;2023-06-22T12:50:46;35.00;59.00
39925;DHT22;25592;49.986;11.618;2023-06-22T12:53:32;35.10;60.00
39925;DHT22;25592;49.986;11.618;2023-06-22T12:56:18;35.50;60.20
39925;DHT22;25592;49.986;11.618;2023-06-22T12:59:04;35.80;59.20
39925;DHT22;25592;49.986;11.618;2023-06-22T13:01:49;35.60;58.30
39925;DHT22;25592;49.986;11.618;2023-06-22T13:04:34;35.50;58.10
39925;DHT22;25592;49.986;11.618;2023-06-22T13:07:20;35.30;59.00
39925;DHT22;25592;49.986;11.618;2023-06-22T13:10:08;35.20;58.00
39925;DHT22;25592;49.986;11.618;2023-06-22T13:12:53;35.10;58.60
39925;DHT22;25592;49.986;11.618;2023-06-22T13:15:45;35.20;59.60
39925;DHT22;25592;49.986;11.618;2023-06-22T13:18:30;35.20;58.70
39925;DHT22;25592;49.986;11.618;2023-06-22T13:21:16;35.10;58.50
39925;DHT22;25592;49.986;11.618;2023-06-22T13:24:01;35.30;57.50
39925;DHT22;25592;49.986;11.618;2023-06-22T13:26:46;35.20;57.90
39925;DHT22;25592;49.986;11.618;2023-06-22T13:29:32;35.10;58.10
39925;DHT22;25592;49.986;11.618;2023-06-22T13:32:17;35.20;57.90
39925;DHT22;25592;49.986;11.618;2023-06-22T13:35:03;35.60;58.50
39925;DHT22;25592;49.986;11.618;2023-06-22T13:37:48;35.80;57.20
39925;DHT22;25592;49.986;11.618;2023-06-22T13:40:33;35.50;57.30
39925;DHT22;25592;49.986;11.618;2023-06-22T13:43:19;35.50;57.70
39925;DHT22;25592;49.986;11.618;2023-06-22T13:46:04;35.50;57.50
39925;DHT22;25592;49.986;11.618;2023-06-22T13:48:49;35.50;57.20
39925;DHT22;25592;49.986;11.618;2023-06-22T13:51:36;35.40;57.50
39925;DHT22;25592;49.986;11.618;2023-06-22T13:54:21;35.40;57.20
39925;DHT22;25592;49.986;11.618;2023-06-22T13:57:14;35.40;57.60
39925;DHT22;25592;49.986;11.618;2023-06-22T14:00:00;35.20;57.30
39925;DHT22;25592;49.986;11.618;2023-06-22T14:02:45;35.00;57.20
39925;DHT22;25592;49.986;11.618;2023-06-22T14:05:31;34.90;57.40
39925;DHT22;25592;49.986;11.618;2023-06-22T14:08:16;35.00;58.00
39925;DHT22;25592;49.986;11.618;2023-06-22T14:11:22;35.00;57.30
39925;DHT22;25592;49.986;11.618;2023-06-22T14:14:07;35.00;57.50
39925;DHT22;25592;49.986;11.618;2023-06-22T14:16:52;35.00;58.50
39925;DHT22;25592;49.986;11.618;2023-06-22T14:19:38;35.20;57.90
39925;DHT22;25592;49.986;11.618;2023-06-22T14:22:23;35.20;57.50
39925;DHT22;25592;49.986;11.618;2023-06-22T14:25:09;35.40;56.90
39925;DHT22;25592;49.986;11.618;2023-06-22T14:27:54;35.20;56.90
39925;DHT22;25592;49.986;11.618;2023-06-22T14:30:39;35.30;57.50
39925;DHT22;25592;49.986;11.618;2023-06-22T14:33:25;35.40;57.00
39925;DHT22;25592;49.986;11.618;2023-06-22T14:36:10;35.20;56.70
39925;DHT22;25592;49.986;11.618;2023-06-22T14:38:56;34.90;56.60
39925;DHT22;25592;49.986;11.618;2023-06-22T14:41:42;34.90;56.90
39925;DHT22;25592;49.986;11.618;2023-06-22T14:44:27;35.00;57.00
39925;DHT22;25592;49.986;11.618;2023-06-22T14:47:14;35.20;57.10
39925;DHT22;25592;49.986;11.618;2023-06-22T14:50:00;35.10;57.20
39925;DHT22;25592;49.986;11.618;2023-06-22T14:52:45;34.90;57.10
39925;DHT22;25592;49.986;11.618;2023-06-22T14:55:31;34.90;57.00
39925;DHT22;25592;49.986;11.618;2023-06-22T14:58:16;35.00;56.80
39925;DHT22;25592;49.986;11.618;2023-06-22T15:01:02;35.10;57.50
39925;DHT22;25592;49.986;11.618;2023-06-22T15:03:49;35.20;57.80
39925;DHT22;25592;49.986;11.618;2023-06-22T15:06:34;35.20;57.80
39925;DHT22;25592;49.986;11.618;2023-06-22T15:09:19;35.40;57.90
39925;DHT22;25592;49.986;11.618;2023-06-22T15:12:05;35.40;57.90
39925;DHT22;25592;49.986;11.618;2023-06-22T15:14:52;35.40;56.80
39925;DHT22;25592;49.986;11.618;2023-06-22T15:17:38;35.40;57.50
39925;DHT22;25592;49.986;11.618;2023-06-22T15:20:23;35.50;56.80
39925;DHT22;25592;49.986;11.618;2023-06-22T15:23:09;35.40;57.20
39925;DHT22;25592;49.986;11.618;2023-06-22T15:25:56;35.50;57.20
39925;DHT22;25592;49.986;11.618;2023-06-22T15:28:42;35.70;57.70
39925;DHT22;25592;49.986;11.618;2023-06-22T15:31:28;35.60;56.40
39925;DHT22;25592;49.986;11.618;2023-06-22T15:34:14;35.60;56.70
39925;DHT22;25592;49.986;11.618;2023-06-22T15:36:59;35.60;56.40
39925;DHT22;25592;49.986;11.618;2023-06-22T15:39:45;35.20;56.30
39925;DHT22;25592;49.986;11.618;2023-06-22T15:42:30;35.20;57.00
39925;DHT22;25592;49.986;11.618;2023-06-22T15:45:16;35.30;57.50
39925;DHT22;25592;49.986;11.618;2023-06-22T15:48:01;35.50;56.70
39925;DHT22;25592;49.986;11.618;2023-06-22T15:50:47;35.70;57.40
39925;DHT22;25592;49.986;11.618;2023-06-22T15:53:32;35.80;57.40
39925;DHT22;25592;49.986;11.618;2023-06-22T15:56:18;35.90;57.70
39925;DHT22;25592;49.986;11.618;2023-06-22T15:59:05;35.90;56.90
39925;DHT22;25592;49.986;11.618;2023-06-22T16:01:50;35.90;57.10
39925;DHT22;25592;49.986;11.618;2023-06-22T16:04:36;36.00;57.50
39925;DHT22;25592;49.986;11.618;2023-06-22T16:07:21;35.80;57.80
39925;DHT22;25592;49.986;11.618;2023-06-22T16:10:07;35.90;59.00
39925;DHT22;25592;49.986;11.618;2023-06-22T16:12:53;35.90;58.00
39925;DHT22;25592;49.986;11.618;2023-06-22T16:15:38;35.80;57.30
39925;DHT22;25592;49.986;11.618;2023-06-22T16:18:24;35.90;57.80
39925;DHT22;25592;49.986;11.618;2023-06-22T16:21:09;35.90;57.70
39925;DHT22;25592;49.986;11.618;2023-06-22T16:23:54;35.90;57.70
39925;DHT22;25592;49.986;11.618;2023-06-22T16:26:41;35.90;56.90
39925;DHT22;25592;49.986;11.618;2023-06-22T16:29:27;36.10;57.10
39925;DHT22;25592;49.986;11.618;2023-06-22T16:32:12;36.10;57.60
39925;DHT22;25592;49.986;11.618;2023-06-22T16:34:57;36.10;57.30
39925;DHT22;25592;49.986;11.618;2023-06-22T16:37:43;36.00;57.00
39925;DHT22;25592;49.986;11.618;2023-06-22T16:40:28;35.70;56.40
39925;DHT22;25592;49.986;11.618;2023-06-22T16:43:14;35.70;57.40
39925;DHT22;25592;49.986;11.618;2023-06-22T16:45:59;35.90;57.80
39925;DHT22;25592;49.986;11.618;2023-06-22T16:48:51;36.00;57.40
39925;DHT22;25592;49.986;11.618;2023-06-22T16:51:37;35.80;57.40
39925;DHT22;25592;49.986;11.618;2023-06-22T16:54:24;35.60;57.20
39925;DHT22;25592;49.986;11.618;2023-06-22T16:57:09;35.60;57.10
39925;DHT22;25592;49.986;11.618;2023-06-22T16:59:54;35.50;57.00
39925;DHT22;25592;49.986;11.618;2023-06-22T17:02:48;35.50;57.60
39925;DHT22;25592;49.986;11.618;2023-06-22T17:05:35;35.70;58.40
39925;DHT22;25592;49.986;11.618;2023-06-22T17:08:22;35.40;58.40
39925;DHT22;25592;49.986;11.618;2023-06-22T17:11:08;35.40;58.80
39925;DHT22;25592;49.986;11.618;2023-06-22T17:13:54;35.40;58.40
39925;DHT22;25592;49.986;11.618;2023-06-22T17:16:42;35.40;58.30
39925;DHT22;25592;49.986;11.618;2023-06-22T17:19:28;35.40;58.00
39925;DHT22;25592;49.986;11.618;2023-06-22T17:22:14;35.30;58.70
39925;DHT22;25592;49.986;11.618;2023-06-22T17:24:59;35.30;59.40